createdAt,value
2023-01-26T00:01:24.448Z,6.40
2023-01-26T00:03:51.717Z,7.30
2023-01-26T00:06:20.169Z,7.57
2023-01-26T00:08:49.191Z,6.38
2023-01-26T00:11:18.406Z,7.32
2023-01-26T00:13:45.473Z,6.28
2023-01-26T00:16:14.249Z,7.22
2023-01-26T00:18:42.335Z,6.55
2023-01-26T00:21:13.325Z,7.15
2023-01-26T00:23:40.186Z,7.38
2023-01-26T00:26:07.913Z,6.22
2023-01-26T00:28:34.717Z,7.82
2023-01-26T00:31:16.175Z,7.32
2023-01-26T00:33:42.980Z,6.32
2023-01-26T00:36:10.919Z,6.13
2023-01-26T00:38:38.486Z,6.43
2023-01-26T00:41:05.327Z,7.70
2023-01-26T00:43:32.076Z,7.07
2023-01-26T00:45:59.026Z,7.00
2023-01-26T00:48:25.763Z,7.45
2023-01-26T00:50:53.484Z,6.55
2023-01-26T00:53:20.432Z,6.95
2023-01-26T00:55:47.159Z,5.72
2023-01-26T00:58:13.854Z,6.57
2023-01-26T01:00:40.736Z,6.32
2023-01-26T01:03:07.942Z,5.97
2023-01-26T01:05:34.857Z,7.45
2023-01-26T01:08:02.232Z,6.68
2023-01-26T01:10:29.448Z,6.78
2023-01-26T01:12:56.717Z,6.75
2023-01-26T01:15:24.773Z,8.15
2023-01-26T01:17:52.128Z,7.10
2023-01-26T01:20:18.992Z,6.38
2023-01-26T01:22:46.927Z,7.47
2023-01-26T01:25:13.875Z,5.85
2023-01-26T01:27:40.550Z,6.32
2023-01-26T01:30:08.556Z,5.75
2023-01-26T01:32:41.998Z,5.90
2023-01-26T01:35:08.947Z,6.60
2023-01-26T01:37:36.839Z,6.20
2023-01-26T01:40:03.862Z,7.05
2023-01-26T01:42:30.567Z,7.18
2023-01-26T01:45:35.096Z,6.35
2023-01-26T01:48:04.977Z,5.63
2023-01-26T01:50:36.906Z,7.07
2023-01-26T01:53:04.616Z,6.35
2023-01-26T01:55:32.247Z,6.45
2023-01-26T01:58:01.250Z,7.05
2023-01-26T02:00:28.793Z,6.45
2023-01-26T02:03:19.324Z,6.93
2023-01-26T02:06:10.638Z,6.60
2023-01-26T02:08:42.958Z,7.32
2023-01-26T02:11:23.028Z,5.97
2023-01-26T02:13:50.252Z,6.85
2023-01-26T02:16:18.121Z,6.25
2023-01-26T02:18:46.221Z,6.85
2023-01-26T02:21:17.506Z,5.93
2023-01-26T02:23:59.325Z,6.57
2023-01-26T02:26:29.573Z,7.03
2023-01-26T02:28:57.272Z,6.75
2023-01-26T02:31:25.240Z,7.25
2023-01-26T02:33:53.192Z,8.25
2023-01-26T02:36:26.579Z,8.93
2023-01-26T02:39:04.710Z,8.18
2023-01-26T02:41:50.881Z,8.60
2023-01-26T02:44:17.805Z,9.90
2023-01-26T02:46:44.646Z,10.55
2023-01-26T02:49:30.242Z,9.30
2023-01-26T02:51:56.999Z,9.90
2023-01-26T02:54:42.895Z,9.80
2023-01-26T02:57:10.061Z,10.73
2023-01-26T02:59:36.905Z,9.35
2023-01-26T03:02:03.791Z,9.20
2023-01-26T03:04:30.503Z,8.95
2023-01-26T03:06:57.753Z,9.38
2023-01-26T03:09:24.645Z,8.88
2023-01-26T03:11:51.527Z,8.38
2023-01-26T03:14:18.484Z,9.75
2023-01-26T03:16:45.268Z,10.18
2023-01-26T03:19:33.172Z,10.18
2023-01-26T03:22:18.863Z,8.95
2023-01-26T03:25:04.599Z,8.70
2023-01-26T03:27:37.488Z,9.50
2023-01-26T03:30:04.647Z,10.13
2023-01-26T03:32:32.203Z,8.65
2023-01-26T03:35:00.254Z,10.10
2023-01-26T03:37:28.115Z,9.50
2023-01-26T03:40:31.449Z,7.45
2023-01-26T03:43:17.376Z,10.93
2023-01-26T03:46:03.104Z,9.93
2023-01-26T03:48:50.660Z,9.85
2023-01-26T03:51:36.091Z,9.50
2023-01-26T03:54:22.512Z,10.15
2023-01-26T03:56:49.202Z,9.55
2023-01-26T03:59:21.031Z,10.07
2023-01-26T04:02:07.537Z,9.60
2023-01-26T04:04:54.217Z,9.45
2023-01-26T04:07:44.613Z,10.45
2023-01-26T04:10:11.851Z,11.10
2023-01-26T04:12:38.838Z,9.75
2023-01-26T04:15:36.017Z,9.45
2023-01-26T04:18:26.397Z,10.32
2023-01-26T04:21:13.175Z,8.38
2023-01-26T04:23:42.348Z,9.48
2023-01-26T04:26:09.064Z,10.55
2023-01-26T04:28:36.089Z,9.45
2023-01-26T04:31:04.688Z,9.95
2023-01-26T04:33:35.099Z,9.57
2023-01-26T04:36:06.763Z,10.02
2023-01-26T04:38:36.359Z,8.93
2023-01-26T04:41:03.407Z,9.45
2023-01-26T04:43:34.545Z,9.35
2023-01-26T04:46:07.117Z,9.65
2023-01-26T04:48:36.203Z,8.77
2023-01-26T04:51:07.133Z,8.43
2023-01-26T04:53:34.717Z,9.65
2023-01-26T04:56:01.615Z,9.43
2023-01-26T04:58:30.125Z,8.40
2023-01-26T05:00:58.447Z,9.73
2023-01-26T05:03:26.407Z,9.43
2023-01-26T05:05:54.918Z,9.43
2023-01-26T05:08:24.396Z,8.75
2023-01-26T05:10:52.561Z,8.13
2023-01-26T05:13:25.322Z,9.73
2023-01-26T05:16:15.223Z,8.57
2023-01-26T05:19:00.843Z,9.25
2023-01-26T05:21:50.172Z,9.50
2023-01-26T05:24:17.552Z,9.80
2023-01-26T05:27:17.783Z,9.80
2023-01-26T05:29:46.196Z,8.82
2023-01-26T05:32:13.198Z,9.38
2023-01-26T05:34:40.308Z,9.45
2023-01-26T05:37:07.490Z,11.13
2023-01-26T05:39:35.323Z,9.73
2023-01-26T05:42:05.557Z,8.68
2023-01-26T05:45:00.882Z,9.45
2023-01-26T05:47:28.934Z,9.30
2023-01-26T05:49:57.297Z,10.27
2023-01-26T05:52:28.189Z,9.90
2023-01-26T05:54:55.230Z,9.85
2023-01-26T05:57:23.277Z,10.00
2023-01-26T05:59:54.644Z,9.02
2023-01-26T06:02:22.159Z,9.30
2023-01-26T06:04:49.599Z,8.95
2023-01-26T06:07:16.409Z,9.60
2023-01-26T06:10:07.155Z,8.30
2023-01-26T06:12:59.784Z,9.75
2023-01-26T06:15:37.817Z,8.98
2023-01-26T06:18:04.993Z,8.90
2023-01-26T06:20:32.556Z,8.05
2023-01-26T06:23:01.581Z,10.05
2023-01-26T06:25:32.540Z,9.30
2023-01-26T06:27:59.267Z,8.38
2023-01-26T06:30:27.723Z,7.32
2023-01-26T06:33:00.274Z,8.45
2023-01-26T06:35:28.400Z,9.18
2023-01-26T06:37:57.978Z,8.45
2023-01-26T06:40:24.750Z,9.35
2023-01-26T06:42:51.704Z,8.38
2023-01-26T06:45:20.696Z,9.48
2023-01-26T06:47:50.289Z,10.32
2023-01-26T06:50:20.341Z,9.23
2023-01-26T06:52:51.749Z,8.80
2023-01-26T06:55:38.443Z,8.45
2023-01-26T06:58:24.067Z,8.38
2023-01-26T07:01:19.201Z,7.57
2023-01-26T07:03:48.025Z,8.68
2023-01-26T07:06:15.056Z,7.53
2023-01-26T07:08:41.966Z,8.73
2023-01-26T07:11:09.831Z,8.73
2023-01-26T07:13:36.583Z,7.50
2023-01-26T07:16:05.546Z,8.57
2023-01-26T07:18:35.665Z,7.18
2023-01-26T07:21:03.924Z,7.97
2023-01-26T07:23:31.691Z,7.68
2023-01-26T07:25:59.871Z,7.72
2023-01-26T07:28:26.941Z,8.45
2023-01-26T07:30:58.152Z,8.70
2023-01-26T07:33:24.901Z,6.30
2023-01-26T07:35:56.329Z,6.93
2023-01-26T07:38:23.760Z,7.63
2023-01-26T07:40:51.556Z,7.45
2023-01-26T07:43:18.673Z,7.38
2023-01-26T07:45:52.891Z,7.03
2023-01-26T07:48:21.582Z,7.18
2023-01-26T07:50:48.729Z,8.05
2023-01-26T07:53:19.271Z,7.85
2023-01-26T07:55:46.860Z,7.10
2023-01-26T07:58:13.705Z,7.40
2023-01-26T08:00:40.446Z,6.47
2023-01-26T08:03:07.297Z,6.90
2023-01-26T08:05:35.541Z,6.75
2023-01-26T08:08:02.689Z,6.63
2023-01-26T08:10:32.411Z,6.82
2023-01-26T08:13:00.611Z,6.47
2023-01-26T08:15:28.510Z,6.72
2023-01-26T08:17:55.364Z,6.10
2023-01-26T08:20:22.925Z,6.32
2023-01-26T08:22:49.601Z,6.63
2023-01-26T08:25:16.364Z,5.85
2023-01-26T08:27:43.145Z,6.22
2023-01-26T08:30:10.970Z,5.47
2023-01-26T08:32:37.924Z,5.50
2023-01-26T08:35:05.156Z,5.65
2023-01-26T08:37:31.875Z,5.90
2023-01-26T08:39:58.661Z,4.88
2023-01-26T08:42:25.386Z,6.22
2023-01-26T08:44:52.570Z,5.60
2023-01-26T08:47:19.332Z,5.72
2023-01-26T08:49:46.135Z,5.95
2023-01-26T08:52:13.229Z,4.88
2023-01-26T08:54:39.936Z,5.20
2023-01-26T08:57:06.634Z,4.85
2023-01-26T08:59:33.307Z,5.15
2023-01-26T09:02:00.299Z,5.00
2023-01-26T09:04:27.438Z,4.90
2023-01-26T09:06:54.463Z,5.72
2023-01-26T09:09:21.229Z,5.45
2023-01-26T09:11:48.263Z,5.10
2023-01-26T09:14:15.128Z,5.25
2023-01-26T09:16:42.365Z,4.85
2023-01-26T09:19:09.032Z,4.72
2023-01-26T09:21:35.739Z,5.10
2023-01-26T09:24:02.684Z,5.25
2023-01-26T09:26:30.798Z,5.15
2023-01-26T09:28:57.872Z,5.85
2023-01-26T09:31:24.670Z,4.95
2023-01-26T09:33:51.769Z,6.03
2023-01-26T09:36:18.955Z,5.85
2023-01-26T09:38:45.797Z,5.55
2023-01-26T09:41:36.652Z,4.45
2023-01-26T09:44:10.813Z,4.75
2023-01-26T09:47:04.007Z,4.88
2023-01-26T09:49:57.500Z,4.53
2023-01-26T09:52:37.903Z,4.53
2023-01-26T09:55:15.271Z,4.43
2023-01-26T09:57:55.523Z,4.35
2023-01-26T10:00:25.945Z,4.47
2023-01-26T10:03:17.293Z,4.78
2023-01-26T10:05:53.851Z,5.07
2023-01-26T10:08:41.360Z,4.55
2023-01-26T10:11:19.487Z,5.05
2023-01-26T10:13:55.776Z,4.10
2023-01-26T10:16:24.949Z,3.95
2023-01-26T10:18:57.599Z,4.32
2023-01-26T10:21:31.001Z,5.22
2023-01-26T10:24:00.435Z,4.13
2023-01-26T10:26:31.377Z,3.80
2023-01-26T10:28:58.648Z,3.85
2023-01-26T10:31:30.181Z,3.50
2023-01-26T10:33:58.761Z,3.60
2023-01-26T10:36:29.239Z,4.10
2023-01-26T10:39:06.665Z,3.78
2023-01-26T10:41:33.857Z,4.07
2023-01-26T10:44:18.576Z,3.58
2023-01-26T10:46:45.361Z,3.47
2023-01-26T10:49:12.525Z,4.35
2023-01-26T10:51:41.693Z,3.80
2023-01-26T10:54:23.225Z,3.30
2023-01-26T10:56:52.016Z,3.83
2023-01-26T10:59:32.518Z,3.60
2023-01-26T11:02:19.860Z,3.30
2023-01-26T11:05:04.468Z,3.53
2023-01-26T11:07:42.320Z,3.78
2023-01-26T11:10:30.346Z,3.53
2023-01-26T11:13:26.648Z,4.10
2023-01-26T11:16:14.747Z,3.60
2023-01-26T11:19:05.545Z,4.18
2023-01-26T11:21:55.426Z,4.60
2023-01-26T11:24:51.213Z,4.05
2023-01-26T11:27:41.959Z,3.85
2023-01-26T11:30:39.446Z,3.70
2023-01-26T11:33:15.074Z,3.70
2023-01-26T11:36:23.465Z,3.55
2023-01-26T11:39:06.236Z,3.92
2023-01-26T11:41:32.867Z,3.15
2023-01-26T11:44:31.181Z,3.67
2023-01-26T11:47:15.696Z,4.15
2023-01-26T11:50:00.803Z,4.05
2023-01-26T11:52:50.725Z,4.63
2023-01-26T11:55:38.274Z,4.53
2023-01-26T11:58:13.292Z,3.80
2023-01-26T12:00:44.091Z,4.53
2023-01-26T12:03:39.276Z,4.30
2023-01-26T12:06:08.684Z,3.75
2023-01-26T12:08:42.061Z,4.22
2023-01-26T12:11:22.959Z,4.35
2023-01-26T12:14:15.631Z,3.53
2023-01-26T12:17:20.656Z,3.17
2023-01-26T12:20:21.204Z,3.22
2023-01-26T12:23:18.800Z,3.55
2023-01-26T12:25:50.644Z,4.00
2023-01-26T12:28:29.450Z,4.15
2023-01-26T12:31:21.513Z,3.55
2023-01-26T12:33:52.269Z,3.92
2023-01-26T12:36:40.421Z,4.33
2023-01-26T12:39:36.561Z,3.25
2023-01-26T12:42:34.399Z,4.57
2023-01-26T12:45:02.284Z,4.05
2023-01-26T12:47:32.015Z,4.22
2023-01-26T12:50:29.215Z,3.92
2023-01-26T12:53:01.961Z,3.38
2023-01-26T12:55:46.184Z,4.45
2023-01-26T12:58:17.224Z,4.13
2023-01-26T13:01:15.521Z,3.90
2023-01-26T13:03:45.602Z,4.70
2023-01-26T13:06:15.162Z,4.57
2023-01-26T13:08:57.770Z,4.15
2023-01-26T13:11:44.659Z,3.80
2023-01-26T13:14:28.341Z,4.05
2023-01-26T13:16:55.520Z,4.28
2023-01-26T13:19:44.068Z,4.18
2023-01-26T13:22:25.725Z,3.92
2023-01-26T13:25:14.212Z,4.40
2023-01-26T13:27:45.651Z,4.30
2023-01-26T13:30:27.266Z,3.88
2023-01-26T13:33:09.305Z,4.35
2023-01-26T13:35:36.322Z,4.22
2023-01-26T13:38:20.330Z,3.80
2023-01-26T13:40:51.988Z,4.53
2023-01-26T13:43:41.409Z,3.45
2023-01-26T13:46:17.114Z,3.22
2023-01-26T13:48:56.576Z,3.20
2023-01-26T13:51:28.612Z,4.18
2023-01-26T13:54:12.510Z,4.43
2023-01-26T13:57:00.671Z,3.58
2023-01-26T13:59:27.498Z,3.58
2023-01-26T14:01:56.328Z,3.63
2023-01-26T14:04:24.148Z,3.95
2023-01-26T14:07:06.546Z,4.15
2023-01-26T14:09:41.058Z,3.75
2023-01-26T14:12:08.422Z,4.18
2023-01-26T14:14:37.869Z,3.60
2023-01-26T14:17:22.761Z,3.03
2023-01-26T14:19:49.568Z,4.03
2023-01-26T14:22:18.398Z,3.70
2023-01-26T14:24:49.639Z,3.50
2023-01-26T14:27:38.672Z,3.63
2023-01-26T14:30:31.507Z,3.83
2023-01-26T14:33:06.211Z,4.07
2023-01-26T14:35:33.495Z,3.78
2023-01-26T14:38:28.780Z,3.92
2023-01-26T14:40:59.029Z,4.82
2023-01-26T14:43:27.250Z,4.93
2023-01-26T14:46:03.746Z,4.60
2023-01-26T14:48:37.324Z,4.78
2023-01-26T14:51:10.825Z,4.43
2023-01-26T14:53:37.782Z,4.88
2023-01-26T14:56:05.249Z,5.35
2023-01-26T14:58:33.470Z,4.68
2023-01-26T15:01:01.862Z,5.28
2023-01-26T15:03:37.536Z,5.53
2023-01-26T15:06:18.060Z,5.68
2023-01-26T15:08:58.262Z,6.55
2023-01-26T15:11:56.263Z,5.03
2023-01-26T15:14:45.715Z,6.10
2023-01-26T15:17:30.582Z,7.05
2023-01-26T15:19:57.427Z,6.47
2023-01-26T15:22:26.376Z,6.78
2023-01-26T15:25:19.060Z,5.60
2023-01-26T15:28:00.015Z,5.85
2023-01-26T15:30:30.282Z,6.03
2023-01-26T15:32:57.749Z,6.03
2023-01-26T15:35:34.796Z,5.93
2023-01-26T15:38:08.919Z,5.63
2023-01-26T15:40:36.287Z,5.75
2023-01-26T15:43:17.137Z,6.03
2023-01-26T15:45:54.387Z,5.87
2023-01-26T15:48:21.803Z,5.78
2023-01-26T15:50:48.735Z,6.60
2023-01-26T15:53:20.536Z,6.55
2023-01-26T15:55:52.632Z,6.43
2023-01-26T15:58:19.706Z,6.90
2023-01-26T16:00:46.539Z,6.22
2023-01-26T16:03:19.095Z,5.18
2023-01-26T16:05:49.426Z,5.80
2023-01-26T16:08:17.044Z,5.10
2023-01-26T16:10:44.524Z,5.38
2023-01-26T16:13:12.909Z,5.40
2023-01-26T16:15:51.093Z,5.18
2023-01-26T16:18:19.413Z,5.40
2023-01-26T16:20:48.019Z,5.32
2023-01-26T16:23:17.673Z,5.70
2023-01-26T16:25:44.458Z,5.00
2023-01-26T16:28:11.188Z,5.50
2023-01-26T16:30:37.977Z,5.30
2023-01-26T16:33:04.961Z,5.43
2023-01-26T16:35:32.001Z,6.32
2023-01-26T16:37:58.750Z,6.05
2023-01-26T16:40:25.469Z,6.18
2023-01-26T16:42:53.855Z,6.82
2023-01-26T16:45:23.707Z,7.65
2023-01-26T16:47:54.026Z,6.85
2023-01-26T16:50:21.558Z,6.07
2023-01-26T16:52:48.594Z,6.55
2023-01-26T16:55:16.142Z,5.72
2023-01-26T16:57:44.551Z,6.95
2023-01-26T17:00:19.397Z,6.32
2023-01-26T17:02:52.088Z,5.60
2023-01-26T17:05:21.622Z,6.20
2023-01-26T17:07:50.765Z,8.75
2023-01-26T17:10:18.149Z,8.75
2023-01-26T17:12:44.929Z,5.97
2023-01-26T17:15:12.942Z,8.75
2023-01-26T17:17:39.955Z,6.95
2023-01-26T17:20:20.074Z,7.20
2023-01-26T17:22:47.871Z,6.47
2023-01-26T17:25:17.032Z,6.50
2023-01-26T17:27:46.348Z,6.35
2023-01-26T17:30:13.647Z,5.68
2023-01-26T17:32:42.271Z,5.35
2023-01-26T17:35:09.422Z,8.82
2023-01-26T17:37:37.688Z,7.45
2023-01-26T17:40:06.712Z,5.72
2023-01-26T17:42:34.931Z,5.75
2023-01-26T17:45:02.226Z,5.68
2023-01-26T17:47:31.115Z,6.70
2023-01-26T17:49:57.814Z,6.47
2023-01-26T17:52:24.487Z,7.57
2023-01-26T17:54:51.165Z,5.47
2023-01-26T17:57:17.856Z,6.00
2023-01-26T17:59:44.568Z,7.75
2023-01-26T18:02:11.867Z,6.88
2023-01-26T18:04:38.797Z,7.07
2023-01-26T18:07:05.636Z,7.30
2023-01-26T18:09:32.541Z,6.90
2023-01-26T18:11:59.266Z,7.53
2023-01-26T18:14:26.092Z,7.03
2023-01-26T18:16:53.000Z,5.18
2023-01-26T18:19:19.747Z,5.80
2023-01-26T18:21:46.449Z,5.97
2023-01-26T18:24:13.250Z,6.43
2023-01-26T18:26:40.158Z,5.55
2023-01-26T18:29:07.184Z,6.88
2023-01-26T18:31:36.835Z,6.57
2023-01-26T18:34:04.417Z,7.35
2023-01-26T18:36:31.588Z,6.85
2023-01-26T18:39:04.839Z,6.72
2023-01-26T18:41:32.968Z,6.07
2023-01-26T18:44:02.993Z,5.72
2023-01-26T18:46:31.208Z,6.05
2023-01-26T18:49:03.002Z,7.00
2023-01-26T18:51:35.225Z,6.18
2023-01-26T18:54:03.943Z,6.28
2023-01-26T18:56:31.356Z,6.40
2023-01-26T18:58:59.000Z,6.75
2023-01-26T19:01:26.297Z,8.10
2023-01-26T19:03:58.049Z,7.25
2023-01-26T19:06:26.063Z,5.60
2023-01-26T19:08:59.309Z,6.20
2023-01-26T19:11:28.602Z,6.18
2023-01-26T19:13:56.192Z,7.28
2023-01-26T19:16:23.786Z,6.53
2023-01-26T19:18:51.813Z,6.72
2023-01-26T19:21:24.446Z,7.55
2023-01-26T19:23:53.124Z,6.35
2023-01-26T19:26:22.874Z,7.72
2023-01-26T19:28:50.974Z,7.70
2023-01-26T19:31:21.455Z,7.63
2023-01-26T19:34:02.424Z,6.97
2023-01-26T19:36:31.792Z,6.75
2023-01-26T19:38:58.881Z,6.55
2023-01-26T19:41:25.994Z,6.35
2023-01-26T19:43:53.352Z,6.32
2023-01-26T19:46:20.359Z,7.05
2023-01-26T19:48:47.445Z,6.93
2023-01-26T19:51:16.839Z,6.22
2023-01-26T19:53:47.387Z,6.60
2023-01-26T19:56:21.675Z,6.50
2023-01-26T19:58:51.088Z,8.80
2023-01-26T20:01:18.323Z,6.63
2023-01-26T20:03:58.812Z,5.93
2023-01-26T20:06:29.275Z,6.38
2023-01-26T20:08:56.333Z,6.63
2023-01-26T20:11:25.205Z,6.22
2023-01-26T20:13:56.208Z,6.97
2023-01-26T20:16:23.755Z,5.25
2023-01-26T20:18:50.809Z,5.80
2023-01-26T20:21:17.661Z,7.32
2023-01-26T20:23:54.047Z,6.95
2023-01-26T20:26:22.857Z,7.65
2023-01-26T20:28:49.616Z,7.60
2023-01-26T20:31:19.895Z,8.02
2023-01-26T20:33:48.926Z,11.75
2023-01-26T20:36:19.188Z,7.60
2023-01-26T20:38:47.603Z,9.13
2023-01-26T20:41:17.897Z,8.07
2023-01-26T20:43:58.526Z,6.22
2023-01-26T20:46:29.379Z,5.78
2023-01-26T20:48:56.712Z,5.95
2023-01-26T20:51:29.389Z,5.13
2023-01-26T20:53:57.798Z,5.10
2023-01-26T20:56:24.767Z,6.00
2023-01-26T20:58:53.836Z,6.20
2023-01-26T21:01:21.316Z,6.25
2023-01-26T21:03:48.593Z,5.07
2023-01-26T21:06:19.025Z,5.15
2023-01-26T21:08:47.343Z,6.07
2023-01-26T21:11:16.066Z,6.43
2023-01-26T21:13:43.202Z,5.57
2023-01-26T21:16:12.707Z,5.75
2023-01-26T21:18:40.123Z,5.05
2023-01-26T21:21:09.246Z,5.68
2023-01-26T21:23:36.136Z,5.88
2023-01-26T21:26:09.693Z,5.35
2023-01-26T21:28:36.964Z,5.85
2023-01-26T21:31:06.536Z,5.25
2023-01-26T21:33:36.873Z,5.93
2023-01-26T21:36:05.457Z,7.93
2023-01-26T21:38:37.950Z,9.00
2023-01-26T21:41:34.762Z,8.05
2023-01-26T21:44:07.366Z,6.88
2023-01-26T21:46:34.702Z,7.68
2023-01-26T21:49:01.951Z,7.18
2023-01-26T21:51:47.749Z,8.60
2023-01-26T21:54:15.003Z,7.60
2023-01-26T21:56:42.124Z,8.40
2023-01-26T21:59:14.727Z,7.78
2023-01-26T22:01:55.995Z,8.90
2023-01-26T22:04:29.434Z,7.53
2023-01-26T22:06:56.781Z,8.15
2023-01-26T22:09:24.418Z,7.78
2023-01-26T22:11:54.785Z,7.55
2023-01-26T22:14:25.961Z,9.05
2023-01-26T22:16:53.101Z,7.90
2023-01-26T22:19:19.893Z,7.88
2023-01-26T22:21:46.938Z,8.45
2023-01-26T22:24:14.726Z,8.73
2023-01-26T22:26:42.188Z,8.40
2023-01-26T22:29:11.937Z,9.57
2023-01-26T22:31:39.287Z,8.60
2023-01-26T22:34:06.594Z,8.35
2023-01-26T22:36:34.055Z,8.05
2023-01-26T22:39:00.892Z,8.23
2023-01-26T22:41:30.092Z,7.25
2023-01-26T22:43:59.380Z,9.40
2023-01-26T22:46:28.491Z,9.93
2023-01-26T22:48:57.360Z,8.13
2023-01-26T22:51:26.903Z,8.20
2023-01-26T22:53:54.799Z,8.07
2023-01-26T22:56:22.191Z,8.85
2023-01-26T22:58:58.344Z,9.02
2023-01-26T23:01:26.882Z,8.85
2023-01-26T23:03:55.922Z,9.20
2023-01-26T23:06:23.290Z,8.50
2023-01-26T23:08:50.169Z,9.55
2023-01-26T23:11:22.378Z,7.97
2023-01-26T23:13:51.637Z,8.80
2023-01-26T23:16:19.076Z,9.15
2023-01-26T23:18:46.003Z,11.50
2023-01-26T23:21:13.596Z,9.40
2023-01-26T23:23:40.885Z,8.82
2023-01-26T23:26:08.884Z,9.15
2023-01-26T23:28:40.261Z,9.55
2023-01-26T23:31:08.337Z,9.38
2023-01-26T23:33:36.274Z,8.95
2023-01-26T23:36:04.282Z,9.98
2023-01-26T23:38:31.381Z,8.80
2023-01-26T23:41:00.315Z,9.65
2023-01-26T23:43:27.565Z,9.40
2023-01-26T23:45:56.559Z,9.10
2023-01-26T23:48:24.817Z,9.68
2023-01-26T23:51:11.836Z,10.40
2023-01-26T23:53:38.879Z,10.70
2023-01-26T23:56:13.618Z,9.32
2023-01-26T23:58:40.297Z,10.23
